Terminal Aerodrome Forecast
Issued by NWS

Home | Current Version | Previous Version | Graphics & Text | Print | Product List | Glossary On
Versions: 1 2 3 4 5 6 7 8 9 10 11 12 13 14 15 16 17 18 19 20
000
FTUS43 KTOP 300834 AAA
TAFMHK
TAF AMD
KMHK 300834Z 3009/0106 06010KT P6SM -SHRA VCTS BKN005 OVC012CB
     FM301100 11006KT 5SM BR BKN007 OVC015
     FM301400 23008KT P6SM BKN008 OVC015
     FM301700 26011KT P6SM BKN015 OVC020
     FM302200 28008KT P6SM SCT030 BKN040=

USA.gov is the U.S. government's official web portal to all federal, state and local government web resources and services.